sensor_id;sensor_type;location;lat;lon;timestamp;temperature;humidity
19799;DHT22;10059;59.850;10.454;2022-09-02T00:02:15;11.30;99.90
19799;DHT22;10059;59.850;10.454;2022-09-02T00:04:42;11.30;99.90
19799;DHT22;10059;59.850;10.454;2022-09-02T00:07:09;11.20;99.90
19799;DHT22;10059;59.850;10.454;2022-09-02T00:09:36;11.20;99.90
19799;DHT22;10059;59.850;10.454;2022-09-02T00:12:06;11.10;99.90
19799;DHT22;10059;59.850;10.454;2022-09-02T00:14:35;11.10;99.90
19799;DHT22;10059;59.850;10.454;2022-09-02T00:17:04;11.30;99.90
19799;DHT22;10059;59.850;10.454;2022-09-02T00:19:31;11.30;99.90
19799;DHT22;10059;59.850;10.454;2022-09-02T00:22:00;11.30;99.90
19799;DHT22;10059;59.850;10.454;2022-09-02T00:24:27;11.40;99.90
19799;DHT22;10059;59.850;10.454;2022-09-02T00:26:54;11.20;99.90
19799;DHT22;10059;59.850;10.454;2022-09-02T00:29:20;11.00;99.90
19799;DHT22;10059;59.850;10.454;2022-09-02T00:31:47;11.00;99.90
19799;DHT22;10059;59.850;10.454;2022-09-02T00:34:16;11.00;99.90
19799;DHT22;10059;59.850;10.454;2022-09-02T00:36:43;10.90;99.90
19799;DHT22;10059;59.850;10.454;2022-09-02T00:39:10;11.00;99.90
19799;DHT22;10059;59.850;10.454;2022-09-02T00:41:38;10.90;99.90
19799;DHT22;10059;59.850;10.454;2022-09-02T00:44:08;10.90;99.90
19799;DHT22;10059;59.850;10.454;2022-09-02T00:46:36;10.90;99.90
19799;DHT22;10059;59.850;10.454;2022-09-02T00:49:07;10.90;99.90
19799;DHT22;10059;59.850;10.454;2022-09-02T00:51:40;10.90;99.90
19799;DHT22;10059;59.850;10.454;2022-09-02T00:54:09;11.10;99.90
19799;DHT22;10059;59.850;10.454;2022-09-02T00:56:39;11.00;99.90
19799;DHT22;10059;59.850;10.454;2022-09-02T00:59:07;11.00;99.90
19799;DHT22;10059;59.850;10.454;2022-09-02T01:01:34;11.10;99.90
19799;DHT22;10059;59.850;10.454;2022-09-02T01:04:01;11.00;99.90
19799;DHT22;10059;59.850;10.454;2022-09-02T01:06:28;11.00;99.90
19799;DHT22;10059;59.850;10.454;2022-09-02T01:09:03;11.00;99.90
19799;DHT22;10059;59.850;10.454;2022-09-02T01:11:37;11.00;99.90
19799;DHT22;10059;59.850;10.454;2022-09-02T01:14:05;11.10;99.90
19799;DHT22;10059;59.850;10.454;2022-09-02T01:16:38;11.00;99.90
19799;DHT22;10059;59.850;10.454;2022-09-02T01:19:11;11.00;99.90
19799;DHT22;10059;59.850;10.454;2022-09-02T01:21:45;10.90;99.90
19799;DHT22;10059;59.850;10.454;2022-09-02T01:24:12;11.00;99.90
19799;DHT22;10059;59.850;10.454;2022-09-02T01:26:40;11.00;99.90
19799;DHT22;10059;59.850;10.454;2022-09-02T01:29:07;10.90;99.90
19799;DHT22;10059;59.850;10.454;2022-09-02T01:31:33;10.70;99.90
19799;DHT22;10059;59.850;10.454;2022-09-02T01:34:00;10.80;99.90
19799;DHT22;10059;59.850;10.454;2022-09-02T01:36:28;10.90;99.90
19799;DHT22;10059;59.850;10.454;2022-09-02T01:38:56;10.70;99.90
19799;DHT22;10059;59.850;10.454;2022-09-02T01:41:23;10.80;99.90
19799;DHT22;10059;59.850;10.454;2022-09-02T01:43:50;10.90;99.90
19799;DHT22;10059;59.850;10.454;2022-09-02T01:46:17;10.80;99.90
19799;DHT22;10059;59.850;10.454;2022-09-02T01:48:44;10.90;99.90
19799;DHT22;10059;59.850;10.454;2022-09-02T01:51:15;10.90;99.90
19799;DHT22;10059;59.850;10.454;2022-09-02T01:53:42;10.90;99.90
19799;DHT22;10059;59.850;10.454;2022-09-02T01:56:11;10.80;99.90
19799;DHT22;10059;59.850;10.454;2022-09-02T01:58:38;11.00;99.90
19799;DHT22;10059;59.850;10.454;2022-09-02T02:01:05;10.90;99.90
19799;DHT22;10059;59.850;10.454;2022-09-02T02:03:33;11.00;99.90
19799;DHT22;10059;59.850;10.454;2022-09-02T02:06:00;11.10;99.90
19799;DHT22;10059;59.850;10.454;2022-09-02T02:08:27;11.10;99.90
19799;DHT22;10059;59.850;10.454;2022-09-02T02:10:54;11.10;99.90
19799;DHT22;10059;59.850;10.454;2022-09-02T02:13:23;11.20;99.90
19799;DHT22;10059;59.850;10.454;2022-09-02T02:15:50;11.20;99.90
19799;DHT22;10059;59.850;10.454;2022-09-02T02:18:17;11.50;99.90
19799;DHT22;10059;59.850;10.454;2022-09-02T02:20:44;11.60;99.90
19799;DHT22;10059;59.850;10.454;2022-09-02T02:23:11;11.60;99.90
19799;DHT22;10059;59.850;10.454;2022-09-02T02:25:38;11.70;99.90
19799;DHT22;10059;59.850;10.454;2022-09-02T02:28:06;11.80;99.90
19799;DHT22;10059;59.850;10.454;2022-09-02T02:30:34;11.90;99.90
19799;DHT22;10059;59.850;10.454;2022-09-02T02:33:01;11.90;99.90
19799;DHT22;10059;59.850;10.454;2022-09-02T02:35:28;11.90;99.90
19799;DHT22;10059;59.850;10.454;2022-09-02T02:37:55;11.90;99.90
19799;DHT22;10059;59.850;10.454;2022-09-02T02:40:23;11.80;99.90
19799;DHT22;10059;59.850;10.454;2022-09-02T02:42:51;11.70;99.90
19799;DHT22;10059;59.850;10.454;2022-09-02T02:45:19;11.80;99.90
19799;DHT22;10059;59.850;10.454;2022-09-02T02:47:48;11.90;99.90
19799;DHT22;10059;59.850;10.454;2022-09-02T02:50:19;11.90;99.90
19799;DHT22;10059;59.850;10.454;2022-09-02T02:52:46;12.00;99.90
19799;DHT22;10059;59.850;10.454;2022-09-02T02:55:14;11.90;99.90
19799;DHT22;10059;59.850;10.454;2022-09-02T02:57:41;11.80;99.90
19799;DHT22;10059;59.850;10.454;2022-09-02T03:00:12;11.90;99.90
19799;DHT22;10059;59.850;10.454;2022-09-02T03:02:39;11.90;99.90
19799;DHT22;10059;59.850;10.454;2022-09-02T03:05:09;12.00;99.90
19799;DHT22;10059;59.850;10.454;2022-09-02T03:07:36;11.90;99.90
19799;DHT22;10059;59.850;10.454;2022-09-02T03:10:05;12.00;99.90
19799;DHT22;10059;59.850;10.454;2022-09-02T03:12:33;12.10;99.90
19799;DHT22;10059;59.850;10.454;2022-09-02T03:14:59;12.20;99.90
19799;DHT22;10059;59.850;10.454;2022-09-02T03:17:27;12.20;99.90
19799;DHT22;10059;59.850;10.454;2022-09-02T03:19:54;12.10;99.90
19799;DHT22;10059;59.850;10.454;2022-09-02T03:22:24;12.30;99.90
19799;DHT22;10059;59.850;10.454;2022-09-02T03:24:51;12.30;99.90
19799;DHT22;10059;59.850;10.454;2022-09-02T03:27:17;12.30;99.90
19799;DHT22;10059;59.850;10.454;2022-09-02T03:29:44;12.40;99.90
19799;DHT22;10059;59.850;10.454;2022-09-02T03:32:11;12.40;99.90
19799;DHT22;10059;59.850;10.454;2022-09-02T03:34:38;12.50;99.90
19799;DHT22;10059;59.850;10.454;2022-09-02T03:37:06;12.40;99.90
19799;DHT22;10059;59.850;10.454;2022-09-02T03:39:36;12.40;99.90
19799;DHT22;10059;59.850;10.454;2022-09-02T03:42:04;12.40;99.90
19799;DHT22;10059;59.850;10.454;2022-09-02T03:44:31;12.40;99.90
19799;DHT22;10059;59.850;10.454;2022-09-02T03:46:59;12.30;99.90
19799;DHT22;10059;59.850;10.454;2022-09-02T03:49:26;12.20;99.90
19799;DHT22;10059;59.850;10.454;2022-09-02T03:51:53;12.20;99.90
19799;DHT22;10059;59.850;10.454;2022-09-02T03:54:20;12.30;99.90
19799;DHT22;10059;59.850;10.454;2022-09-02T03:56:48;12.40;99.90
19799;DHT22;10059;59.850;10.454;2022-09-02T03:59:15;12.30;99.90
19799;DHT22;10059;59.850;10.454;2022-09-02T04:01:43;12.30;99.90
19799;DHT22;10059;59.850;10.454;2022-09-02T04:04:10;12.30;99.90
19799;DHT22;10059;59.850;10.454;2022-09-02T04:06:37;12.30;99.90
19799;DHT22;10059;59.850;10.454;2022-09-02T04:09:05;12.20;99.90
19799;DHT22;10059;59.850;10.454;2022-09-02T04:11:32;12.30;99.90
19799;DHT22;10059;59.850;10.454;2022-09-02T04:14:00;12.20;99.90
19799;DHT22;10059;59.850;10.454;2022-09-02T04:16:27;12.30;99.90
19799;DHT22;10059;59.850;10.454;2022-09-02T04:18:55;12.60;99.90
19799;DHT22;10059;59.850;10.454;2022-09-02T04:21:23;12.80;99.90
19799;DHT22;10059;59.850;10.454;2022-09-02T04:23:50;12.70;99.90
19799;DHT22;10059;59.850;10.454;2022-09-02T04:26:19;12.70;99.90
19799;DHT22;10059;59.850;10.454;2022-09-02T04:28:47;12.90;99.90
19799;DHT22;10059;59.850;10.454;2022-09-02T04:31:18;12.80;99.90
19799;DHT22;10059;59.850;10.454;2022-09-02T04:33:45;13.00;99.90
19799;DHT22;10059;59.850;10.454;2022-09-02T04:36:14;13.20;99.90
19799;DHT22;10059;59.850;10.454;2022-09-02T04:38:42;13.30;99.90
19799;DHT22;10059;59.850;10.454;2022-09-02T04:41:11;13.40;99.90
19799;DHT22;10059;59.850;10.454;2022-09-02T04:43:38;13.50;99.90
19799;DHT22;10059;59.850;10.454;2022-09-02T04:46:07;13.40;99.90
19799;DHT22;10059;59.850;10.454;2022-09-02T04:48:36;13.60;99.90
19799;DHT22;10059;59.850;10.454;2022-09-02T04:51:05;13.40;99.90
19799;DHT22;10059;59.850;10.454;2022-09-02T04:53:33;13.20;99.90
19799;DHT22;10059;59.850;10.454;2022-09-02T04:56:02;13.10;99.90
19799;DHT22;10059;59.850;10.454;2022-09-02T04:58:29;13.10;99.90
19799;DHT22;10059;59.850;10.454;2022-09-02T05:00:56;13.10;99.90
19799;DHT22;10059;59.850;10.454;2022-09-02T05:03:23;13.00;99.90
19799;DHT22;10059;59.850;10.454;2022-09-02T05:06:02;13.10;99.90
19799;DHT22;10059;59.850;10.454;2022-09-02T05:08:30;13.00;99.90
19799;DHT22;10059;59.850;10.454;2022-09-02T05:10:57;13.10;99.90
19799;DHT22;10059;59.850;10.454;2022-09-02T05:13:25;13.00;99.90
19799;DHT22;10059;59.850;10.454;2022-09-02T05:15:52;13.00;99.90
19799;DHT22;10059;59.850;10.454;2022-09-02T05:18:19;13.40;99.90
19799;DHT22;10059;59.850;10.454;2022-09-02T05:20:46;13.40;99.90
19799;DHT22;10059;59.850;10.454;2022-09-02T05:23:14;13.50;99.90
19799;DHT22;10059;59.850;10.454;2022-09-02T05:25:41;13.50;99.90
19799;DHT22;10059;59.850;10.454;2022-09-02T05:28:09;13.50;99.90
19799;DHT22;10059;59.850;10.454;2022-09-02T05:30:37;13.50;99.90
19799;DHT22;10059;59.850;10.454;2022-09-02T05:33:05;13.60;99.90
19799;DHT22;10059;59.850;10.454;2022-09-02T05:35:32;13.50;99.90
19799;DHT22;10059;59.850;10.454;2022-09-02T05:37:59;13.30;99.90
19799;DHT22;10059;59.850;10.454;2022-09-02T05:40:28;13.40;99.90
19799;DHT22;10059;59.850;10.454;2022-09-02T05:42:54;13.40;99.90
19799;DHT22;10059;59.850;10.454;2022-09-02T05:45:21;13.40;99.90
19799;DHT22;10059;59.850;10.454;2022-09-02T05:47:49;13.40;99.90
19799;DHT22;10059;59.850;10.454;2022-09-02T05:50:16;13.60;99.90
19799;DHT22;10059;59.850;10.454;2022-09-02T05:52:43;13.60;99.90
19799;DHT22;10059;59.850;10.454;2022-09-02T05:55:10;13.60;99.90
19799;DHT22;10059;59.850;10.454;2022-09-02T05:57:38;13.60;99.90
19799;DHT22;10059;59.850;10.454;2022-09-02T06:00:06;13.70;99.90
19799;DHT22;10059;59.850;10.454;2022-09-02T06:02:33;13.80;99.90
19799;DHT22;10059;59.850;10.454;2022-09-02T06:05:00;14.20;99.90
19799;DHT22;10059;59.850;10.454;2022-09-02T06:07:27;14.10;99.90
19799;DHT22;10059;59.850;10.454;2022-09-02T06:09:54;14.10;99.90
19799;DHT22;10059;59.850;10.454;2022-09-02T06:12:21;14.20;99.90
19799;DHT22;10059;59.850;10.454;2022-09-02T06:14:50;14.30;99.90
19799;DHT22;10059;59.850;10.454;2022-09-02T06:17:16;14.60;99.90
19799;DHT22;10059;59.850;10.454;2022-09-02T06:19:43;14.70;99.90
19799;DHT22;10059;59.850;10.454;2022-09-02T06:22:10;14.60;99.90
19799;DHT22;10059;59.850;10.454;2022-09-02T06:24:37;14.60;99.90
19799;DHT22;10059;59.850;10.454;2022-09-02T06:27:04;14.90;99.90
19799;DHT22;10059;59.850;10.454;2022-09-02T06:29:31;14.90;99.90
19799;DHT22;10059;59.850;10.454;2022-09-02T06:32:01;14.90;99.90
19799;DHT22;10059;59.850;10.454;2022-09-02T06:34:28;14.90;99.90
19799;DHT22;10059;59.850;10.454;2022-09-02T06:36:55;14.90;99.90
19799;DHT22;10059;59.850;10.454;2022-09-02T06:39:22;14.80;99.90
19799;DHT22;10059;59.850;10.454;2022-09-02T06:41:50;14.80;99.90
19799;DHT22;10059;59.850;10.454;2022-09-02T06:44:18;14.70;99.90
19799;DHT22;10059;59.850;10.454;2022-09-02T06:46:48;14.60;99.90
19799;DHT22;10059;59.850;10.454;2022-09-02T06:49:20;14.50;99.90
19799;DHT22;10059;59.850;10.454;2022-09-02T06:51:48;14.50;99.90
19799;DHT22;10059;59.850;10.454;2022-09-02T06:54:18;14.30;99.90
19799;DHT22;10059;59.850;10.454;2022-09-02T06:56:46;14.30;99.90
19799;DHT22;10059;59.850;10.454;2022-09-02T06:59:14;14.10;99.90
19799;DHT22;10059;59.850;10.454;2022-09-02T07:01:41;14.10;99.90
19799;DHT22;10059;59.850;10.454;2022-09-02T07:04:08;14.00;99.90
19799;DHT22;10059;59.850;10.454;2022-09-02T07:06:54;13.90;99.90
19799;DHT22;10059;59.850;10.454;2022-09-02T07:09:23;14.00;99.90
19799;DHT22;10059;59.850;10.454;2022-09-02T07:11:56;14.00;99.90
19799;DHT22;10059;59.850;10.454;2022-09-02T07:14:24;14.10;99.90
19799;DHT22;10059;59.850;10.454;2022-09-02T07:16:53;14.20;99.90
19799;DHT22;10059;59.850;10.454;2022-09-02T07:19:22;14.30;99.90
19799;DHT22;10059;59.850;10.454;2022-09-02T07:21:50;14.30;99.90
19799;DHT22;10059;59.850;10.454;2022-09-02T07:24:18;14.40;99.90
19799;DHT22;10059;59.850;10.454;2022-09-02T07:26:45;14.40;99.90
19799;DHT22;10059;59.850;10.454;2022-09-02T07:29:12;14.40;99.90
19799;DHT22;10059;59.850;10.454;2022-09-02T07:31:43;14.20;99.90
19799;DHT22;10059;59.850;10.454;2022-09-02T07:34:11;14.10;99.90
19799;DHT22;10059;59.850;10.454;2022-09-02T07:36:40;14.10;99.90
19799;DHT22;10059;59.850;10.454;2022-09-02T07:39:09;14.10;99.90
19799;DHT22;10059;59.850;10.454;2022-09-02T07:41:39;14.30;99.90
19799;DHT22;10059;59.850;10.454;2022-09-02T07:44:06;14.20;99.90
19799;DHT22;10059;59.850;10.454;2022-09-02T07:46:34;14.30;99.90
19799;DHT22;10059;59.850;10.454;2022-09-02T07:49:04;14.30;99.90
19799;DHT22;10059;59.850;10.454;2022-09-02T07:51:33;14.40;99.90
19799;DHT22;10059;59.850;10.454;2022-09-02T07:54:00;14.50;99.90
19799;DHT22;10059;59.850;10.454;2022-09-02T07:56:27;14.50;99.90
19799;DHT22;10059;59.850;10.454;2022-09-02T07:58:56;14.50;99.90
19799;DHT22;10059;59.850;10.454;2022-09-02T08:01:23;14.50;99.90
19799;DHT22;10059;59.850;10.454;2022-09-02T08:03:51;14.50;99.90
19799;DHT22;10059;59.850;10.454;2022-09-02T08:06:19;14.60;99.90
19799;DHT22;10059;59.850;10.454;2022-09-02T08:08:48;14.70;99.90
19799;DHT22;10059;59.850;10.454;2022-09-02T08:11:15;14.80;99.90
19799;DHT22;10059;59.850;10.454;2022-09-02T08:13:42;14.50;99.90
19799;DHT22;10059;59.850;10.454;2022-09-02T08:16:11;14.30;99.90
19799;DHT22;10059;59.850;10.454;2022-09-02T08:18:38;14.30;99.90
19799;DHT22;10059;59.850;10.454;2022-09-02T08:21:05;14.60;99.90
19799;DHT22;10059;59.850;10.454;2022-09-02T08:23:32;14.50;99.90
19799;DHT22;10059;59.850;10.454;2022-09-02T08:25:59;14.10;99.90
19799;DHT22;10059;59.850;10.454;2022-09-02T08:28:27;14.10;99.90
19799;DHT22;10059;59.850;10.454;2022-09-02T08:30:54;14.30;99.90
19799;DHT22;10059;59.850;10.454;2022-09-02T08:33:23;14.40;99.90
19799;DHT22;10059;59.850;10.454;2022-09-02T08:35:50;14.50;99.90
19799;DHT22;10059;59.850;10.454;2022-09-02T08:38:17;14.70;99.90
19799;DHT22;10059;59.850;10.454;2022-09-02T08:40:46;14.80;99.90
19799;DHT22;10059;59.850;10.454;2022-09-02T08:43:25;14.60;99.90
19799;DHT22;10059;59.850;10.454;2022-09-02T08:45:55;14.50;99.90
19799;DHT22;10059;59.850;10.454;2022-09-02T08:48:33;14.40;99.90
19799;DHT22;10059;59.850;10.454;2022-09-02T08:51:06;14.40;99.90
19799;DHT22;10059;59.850;10.454;2022-09-02T08:53:38;14.50;99.90
19799;DHT22;10059;59.850;10.454;2022-09-02T08:56:09;14.40;99.90
19799;DHT22;10059;59.850;10.454;2022-09-02T08:58:40;14.60;99.90
19799;DHT22;10059;59.850;10.454;2022-09-02T09:01:13;14.50;99.90
19799;DHT22;10059;59.850;10.454;2022-09-02T09:03:57;14.50;99.90
19799;DHT22;10059;59.850;10.454;2022-09-02T09:06:33;14.60;99.90
19799;DHT22;10059;59.850;10.454;2022-09-02T09:09:09;14.70;99.90
19799;DHT22;10059;59.850;10.454;2022-09-02T09:11:44;14.60;99.90
19799;DHT22;10059;59.850;10.454;2022-09-02T09:14:20;14.40;99.90
19799;DHT22;10059;59.850;10.454;2022-09-02T09:16:54;14.30;99.90
19799;DHT22;10059;59.850;10.454;2022-09-02T09:19:34;14.40;99.90
19799;DHT22;10059;59.850;10.454;2022-09-02T09:22:02;14.40;99.90
19799;DHT22;10059;59.850;10.454;2022-09-02T09:24:34;14.30;99.90
19799;DHT22;10059;59.850;10.454;2022-09-02T09:27:05;14.50;99.90
19799;DHT22;10059;59.850;10.454;2022-09-02T09:29:34;14.30;99.90
19799;DHT22;10059;59.850;10.454;2022-09-02T09:32:02;14.00;99.90
19799;DHT22;10059;59.850;10.454;2022-09-02T09:34:57;13.90;99.90
19799;DHT22;10059;59.850;10.454;2022-09-02T09:37:31;13.90;99.90
19799;DHT22;10059;59.850;10.454;2022-09-02T09:39:58;13.80;99.90
19799;DHT22;10059;59.850;10.454;2022-09-02T09:42:31;13.90;99.90
19799;DHT22;10059;59.850;10.454;2022-09-02T09:44:58;13.80;99.90
19799;DHT22;10059;59.850;10.454;2022-09-02T09:47:25;13.80;99.90
19799;DHT22;10059;59.850;10.454;2022-09-02T09:50:08;13.80;99.90
19799;DHT22;10059;59.850;10.454;2022-09-02T09:52:35;13.60;99.90
19799;DHT22;10059;59.850;10.454;2022-09-02T09:55:10;13.70;99.90
19799;DHT22;10059;59.850;10.454;2022-09-02T09:57:38;13.80;99.90
19799;DHT22;10059;59.850;10.454;2022-09-02T10:00:18;13.80;99.90
19799;DHT22;10059;59.850;10.454;2022-09-02T10:02:48;13.90;99.90
19799;DHT22;10059;59.850;10.454;2022-09-02T10:05:26;13.80;99.90
19799;DHT22;10059;59.850;10.454;2022-09-02T10:07:55;13.70;99.90
19799;DHT22;10059;59.850;10.454;2022-09-02T10:10:24;13.80;99.90
19799;DHT22;10059;59.850;10.454;2022-09-02T10:12:53;13.90;99.90
19799;DHT22;10059;59.850;10.454;2022-09-02T10:15:28;14.00;99.90
19799;DHT22;10059;59.850;10.454;2022-09-02T10:18:02;14.10;99.90
19799;DHT22;10059;59.850;10.454;2022-09-02T10:20:41;14.40;99.90
19799;DHT22;10059;59.850;10.454;2022-09-02T10:23:23;14.70;99.90
19799;DHT22;10059;59.850;10.454;2022-09-02T10:26:02;14.70;99.90
19799;DHT22;10059;59.850;10.454;2022-09-02T10:28:49;14.80;99.90
19799;DHT22;10059;59.850;10.454;2022-09-02T10:31:26;14.90;99.90
19799;DHT22;10059;59.850;10.454;2022-09-02T10:34:04;14.90;99.90
19799;DHT22;10059;59.850;10.454;2022-09-02T10:36:45;14.90;99.90
19799;DHT22;10059;59.850;10.454;2022-09-02T10:39:23;14.90;99.90
19799;DHT22;10059;59.850;10.454;2022-09-02T10:41:53;15.00;99.90
19799;DHT22;10059;59.850;10.454;2022-09-02T10:44:27;14.90;99.90
19799;DHT22;10059;59.850;10.454;2022-09-02T10:46:59;14.90;99.90
19799;DHT22;10059;59.850;10.454;2022-09-02T10:49:37;15.00;99.90
19799;DHT22;10059;59.850;10.454;2022-09-02T10:52:19;15.10;99.90
19799;DHT22;10059;59.850;10.454;2022-09-02T10:54:54;14.90;99.90
19799;DHT22;10059;59.850;10.454;2022-09-02T10:57:27;15.00;99.90
19799;DHT22;10059;59.850;10.454;2022-09-02T10:59:59;14.90;99.90
19799;DHT22;10059;59.850;10.454;2022-09-02T11:02:33;15.00;99.90
19799;DHT22;10059;59.850;10.454;2022-09-02T11:05:06;15.00;99.90
19799;DHT22;10059;59.850;10.454;2022-09-02T11:07:41;14.90;99.90
19799;DHT22;10059;59.850;10.454;2022-09-02T11:10:11;14.90;99.90
19799;DHT22;10059;59.850;10.454;2022-09-02T11:12:46;14.90;99.90
19799;DHT22;10059;59.850;10.454;2022-09-02T11:15:20;14.90;99.90
19799;DHT22;10059;59.850;10.454;2022-09-02T11:17:52;14.80;99.90
19799;DHT22;10059;59.850;10.454;2022-09-02T11:20:27;14.80;99.90
19799;DHT22;10059;59.850;10.454;2022-09-02T11:23:02;14.80;99.90
19799;DHT22;10059;59.850;10.454;2022-09-02T11:25:33;14.90;99.90
19799;DHT22;10059;59.850;10.454;2022-09-02T11:28:14;14.90;99.90
19799;DHT22;10059;59.850;10.454;2022-09-02T11:30:50;15.00;99.90
19799;DHT22;10059;59.850;10.454;2022-09-02T11:33:22;14.90;99.90
19799;DHT22;10059;59.850;10.454;2022-09-02T11:35:52;14.90;99.90
19799;DHT22;10059;59.850;10.454;2022-09-02T11:38:31;14.90;99.90
19799;DHT22;10059;59.850;10.454;2022-09-02T11:41:11;15.10;99.90
19799;DHT22;10059;59.850;10.454;2022-09-02T11:43:45;15.20;99.90
19799;DHT22;10059;59.850;10.454;2022-09-02T11:46:37;15.20;99.90
19799;DHT22;10059;59.850;10.454;2022-09-02T11:52:32;15.10;99.90
19799;DHT22;10059;59.850;10.454;2022-09-02T11:55:09;15.20;99.90
19799;DHT22;10059;59.850;10.454;2022-09-02T11:57:41;15.20;99.90
19799;DHT22;10059;59.850;10.454;2022-09-02T12:00:23;15.30;99.90
19799;DHT22;10059;59.850;10.454;2022-09-02T12:05:48;15.20;99.90
19799;DHT22;10059;59.850;10.454;2022-09-02T12:11:50;15.50;99.90
19799;DHT22;10059;59.850;10.454;2022-09-02T12:17:38;15.10;99.90
19799;DHT22;10059;59.850;10.454;2022-09-02T12:20:07;15.10;99.90
19799;DHT22;10059;59.850;10.454;2022-09-02T12:22:37;15.10;99.90
19799;DHT22;10059;59.850;10.454;2022-09-02T12:25:40;15.40;99.90
19799;DHT22;10059;59.850;10.454;2022-09-02T12:28:15;15.60;99.90
19799;DHT22;10059;59.850;10.454;2022-09-02T12:31:09;15.30;99.90
19799;DHT22;10059;59.850;10.454;2022-09-02T12:33:38;15.50;99.90
19799;DHT22;10059;59.850;10.454;2022-09-02T12:36:06;15.80;99.90
19799;DHT22;10059;59.850;10.454;2022-09-02T12:38:34;16.00;99.90
19799;DHT22;10059;59.850;10.454;2022-09-02T12:44:00;16.40;99.90
19799;DHT22;10059;59.850;10.454;2022-09-02T12:46:43;16.40;99.90
19799;DHT22;10059;59.850;10.454;2022-09-02T12:49:26;16.50;99.90
19799;DHT22;10059;59.850;10.454;2022-09-02T12:51:55;16.70;99.90
19799;DHT22;10059;59.850;10.454;2022-09-02T12:54:28;16.70;99.90
19799;DHT22;10059;59.850;10.454;2022-09-02T12:56:57;16.60;99.90
19799;DHT22;10059;59.850;10.454;2022-09-02T12:59:28;16.70;99.90
19799;DHT22;10059;59.850;10.454;2022-09-02T13:05:06;16.90;99.90
19799;DHT22;10059;59.850;10.454;2022-09-02T13:08:06;17.00;99.90
19799;DHT22;10059;59.850;10.454;2022-09-02T13:14:06;18.00;99.90
19799;DHT22;10059;59.850;10.454;2022-09-02T13:16:45;18.00;99.90
19799;DHT22;10059;59.850;10.454;2022-09-02T13:19:45;18.00;99.90
19799;DHT22;10059;59.850;10.454;2022-09-02T13:22:42;17.70;99.90
19799;DHT22;10059;59.850;10.454;2022-09-02T13:25:35;17.70;99.90
19799;DHT22;10059;59.850;10.454;2022-09-02T13:31:18;17.80;99.90
19799;DHT22;10059;59.850;10.454;2022-09-02T13:33:58;18.00;99.90
19799;DHT22;10059;59.850;10.454;2022-09-02T13:36:27;18.10;99.90
19799;DHT22;10059;59.850;10.454;2022-09-02T13:38:55;18.10;99.90
19799;DHT22;10059;59.850;10.454;2022-09-02T13:41:29;18.50;99.90
19799;DHT22;10059;59.850;10.454;2022-09-02T13:44:07;18.50;99.90
19799;DHT22;10059;59.850;10.454;2022-09-02T13:46:43;18.50;99.90
19799;DHT22;10059;59.850;10.454;2022-09-02T13:49:19;18.40;99.90
19799;DHT22;10059;59.850;10.454;2022-09-02T13:51:48;18.40;99.90
19799;DHT22;10059;59.850;10.454;2022-09-02T13:54:25;18.70;99.90
19799;DHT22;10059;59.850;10.454;2022-09-02T13:56:53;18.90;99.90
19799;DHT22;10059;59.850;10.454;2022-09-02T13:59:35;19.30;99.90
19799;DHT22;10059;59.850;10.454;2022-09-02T14:02:16;19.60;99.90
19799;DHT22;10059;59.850;10.454;2022-09-02T14:04:46;19.70;99.90
19799;DHT22;10059;59.850;10.454;2022-09-02T14:07:15;20.00;99.90
19799;DHT22;10059;59.850;10.454;2022-09-02T14:09:44;20.40;99.90
19799;DHT22;10059;59.850;10.454;2022-09-02T14:12:11;20.60;99.90
19799;DHT22;10059;59.850;10.454;2022-09-02T14:14:40;19.90;99.90
19799;DHT22;10059;59.850;10.454;2022-09-02T14:17:18;19.60;99.90
19799;DHT22;10059;59.850;10.454;2022-09-02T14:19:47;19.50;99.90
19799;DHT22;10059;59.850;10.454;2022-09-02T14:22:26;19.90;99.90
19799;DHT22;10059;59.850;10.454;2022-09-02T14:24:53;20.00;99.90
19799;DHT22;10059;59.850;10.454;2022-09-02T14:27:22;20.30;99.90
19799;DHT22;10059;59.850;10.454;2022-09-02T14:29:53;19.90;99.90
19799;DHT22;10059;59.850;10.454;2022-09-02T14:32:22;19.60;99.90
19799;DHT22;10059;59.850;10.454;2022-09-02T14:35:10;19.80;99.90
19799;DHT22;10059;59.850;10.454;2022-09-02T14:37:49;19.70;99.90
19799;DHT22;10059;59.850;10.454;2022-09-02T14:40:16;19.70;99.90
19799;DHT22;10059;59.850;10.454;2022-09-02T14:42:48;19.90;99.90
19799;DHT22;10059;59.850;10.454;2022-09-02T14:45:25;20.00;99.90
19799;DHT22;10059;59.850;10.454;2022-09-02T14:47:53;19.70;99.90
19799;DHT22;10059;59.850;10.454;2022-09-02T14:50:25;19.00;99.90
19799;DHT22;10059;59.850;10.454;2022-09-02T14:52:57;19.00;99.90
19799;DHT22;10059;59.850;10.454;2022-09-02T14:55:49;19.00;99.90
19799;DHT22;10059;59.850;10.454;2022-09-02T14:58:18;18.80;99.90
19799;DHT22;10059;59.850;10.454;2022-09-02T15:00:47;18.40;99.90
19799;DHT22;10059;59.850;10.454;2022-09-02T15:03:17;18.50;99.90
19799;DHT22;10059;59.850;10.454;2022-09-02T15:05:45;18.50;99.90
19799;DHT22;10059;59.850;10.454;2022-09-02T15:08:14;18.30;99.90
19799;DHT22;10059;59.850;10.454;2022-09-02T15:10:42;18.30;99.90
19799;DHT22;10059;59.850;10.454;2022-09-02T15:13:12;18.20;99.90
19799;DHT22;10059;59.850;10.454;2022-09-02T15:15:39;18.20;99.90
19799;DHT22;10059;59.850;10.454;2022-09-02T15:18:06;18.30;99.90
19799;DHT22;10059;59.850;10.454;2022-09-02T15:20:33;18.40;99.90
19799;DHT22;10059;59.850;10.454;2022-09-02T15:23:02;18.20;99.90
19799;DHT22;10059;59.850;10.454;2022-09-02T15:25:29;18.20;99.90
19799;DHT22;10059;59.850;10.454;2022-09-02T15:27:55;18.20;99.90
19799;DHT22;10059;59.850;10.454;2022-09-02T15:30:22;18.40;99.90
19799;DHT22;10059;59.850;10.454;2022-09-02T15:32:49;18.20;99.90
19799;DHT22;10059;59.850;10.454;2022-09-02T15:35:16;18.00;99.90
19799;DHT22;10059;59.850;10.454;2022-09-02T15:37:43;18.10;99.90
19799;DHT22;10059;59.850;10.454;2022-09-02T15:40:11;18.20;99.90
19799;DHT22;10059;59.850;10.454;2022-09-02T15:42:39;18.20;99.90
19799;DHT22;10059;59.850;10.454;2022-09-02T15:45:07;18.20;99.90
19799;DHT22;10059;59.850;10.454;2022-09-02T15:47:35;18.10;99.90
19799;DHT22;10059;59.850;10.454;2022-09-02T15:50:02;18.10;99.90
19799;DHT22;10059;59.850;10.454;2022-09-02T15:52:29;18.10;99.90
19799;DHT22;10059;59.850;10.454;2022-09-02T15:54:56;18.00;99.90
19799;DHT22;10059;59.850;10.454;2022-09-02T15:57:25;18.00;99.90
19799;DHT22;10059;59.850;10.454;2022-09-02T15:59:51;18.00;99.90
19799;DHT22;10059;59.850;10.454;2022-09-02T16:02:18;18.10;99.90